createdAt,value
2018-08-09T00:00:28.205Z,18.60
2018-08-09T00:04:32.664Z,18.70
2018-08-09T00:08:36.894Z,18.70
2018-08-09T00:12:41.109Z,18.40
2018-08-09T00:16:45.525Z,18.30
2018-08-09T00:20:49.743Z,18.10
2018-08-09T00:24:54.171Z,18.10
2018-08-09T00:28:58.724Z,18.00
2018-08-09T00:33:03.211Z,17.90
2018-08-09T00:37:07.649Z,17.70
2018-08-09T00:41:12.168Z,17.60
2018-08-09T00:45:16.462Z,17.60
2018-08-09T00:49:20.970Z,17.60
2018-08-09T00:53:25.524Z,17.50
2018-08-09T00:57:29.968Z,17.60
2018-08-09T01:01:34.252Z,17.60
2018-08-09T01:05:38.589Z,17.50
2018-08-09T01:09:42.777Z,17.40
2018-08-09T01:13:47.124Z,17.30
2018-08-09T01:17:51.341Z,17.20
2018-08-09T01:21:55.836Z,17.20
2018-08-09T01:26:00.045Z,17.20
2018-08-09T01:30:04.550Z,17.20
2018-08-09T01:34:10.092Z,17.10
2018-08-09T01:38:14.370Z,17.00
2018-08-09T01:42:29.395Z,17.10
2018-08-09T01:46:33.664Z,17.20
2018-08-09T01:50:37.976Z,17.20
2018-08-09T01:54:42.236Z,17.00
2018-08-09T01:58:46.912Z,16.90
2018-08-09T02:02:51.176Z,16.90
2018-08-09T02:06:55.461Z,16.90
2018-08-09T02:10:59.714Z,16.90
2018-08-09T02:15:04.130Z,17.00
2018-08-09T02:19:08.332Z,16.80
2018-08-09T02:23:12.679Z,16.70
2018-08-09T02:27:17.067Z,16.70
2018-08-09T02:31:21.514Z,16.60
2018-08-09T02:35:25.764Z,16.60
2018-08-09T02:39:30.093Z,16.70
2018-08-09T02:43:34.323Z,16.70
2018-08-09T02:47:38.720Z,16.60
2018-08-09T02:51:42.937Z,16.50
2018-08-09T02:55:47.281Z,16.50
2018-08-09T02:59:51.485Z,16.50
2018-08-09T03:03:55.907Z,16.40
2018-08-09T03:08:00.085Z,16.40
2018-08-09T03:12:04.312Z,16.40
2018-08-09T03:16:08.654Z,16.30
2018-08-09T03:20:12.834Z,16.30
2018-08-09T03:24:17.384Z,16.20
2018-08-09T03:28:21.611Z,16.20
2018-08-09T03:32:25.934Z,16.10
2018-08-09T03:36:30.149Z,16.10
2018-08-09T03:40:34.464Z,16.20
2018-08-09T03:44:38.729Z,16.10
2018-08-09T03:48:43.000Z,16.00
2018-08-09T03:52:47.512Z,16.00
2018-08-09T03:56:51.739Z,16.00
2018-08-09T04:00:57.058Z,16.10
2018-08-09T04:05:01.270Z,16.10
2018-08-09T04:09:09.137Z,16.00
2018-08-09T04:13:13.323Z,16.00
2018-08-09T04:17:20.800Z,16.10
2018-08-09T04:21:25.009Z,16.10
2018-08-09T04:25:29.310Z,16.20
2018-08-09T04:29:33.577Z,16.30
2018-08-09T04:33:37.977Z,16.20
2018-08-09T04:37:42.334Z,16.20
2018-08-09T04:41:46.693Z,16.40
2018-08-09T04:45:50.890Z,16.40
2018-08-09T04:49:55.152Z,16.30
2018-08-09T04:53:59.357Z,16.40
2018-08-09T04:58:03.686Z,16.50
2018-08-09T05:02:08.223Z,16.60
2018-08-09T05:06:12.915Z,16.70
2018-08-09T05:10:17.301Z,16.80
2018-08-09T05:14:21.789Z,17.00
2018-08-09T05:18:26.137Z,17.10
2018-08-09T05:22:30.487Z,17.20
2018-08-09T05:26:34.979Z,17.30
2018-08-09T05:30:39.173Z,17.40
2018-08-09T05:34:43.504Z,17.50
2018-08-09T05:38:47.856Z,17.70
2018-08-09T05:42:52.213Z,17.90
2018-08-09T05:46:56.523Z,18.10
2018-08-09T05:51:00.920Z,18.30
2018-08-09T05:55:05.191Z,18.60
2018-08-09T05:59:09.427Z,19.00
2018-08-09T06:03:13.876Z,19.20
2018-08-09T06:07:18.076Z,19.50
2018-08-09T06:11:22.392Z,19.70
2018-08-09T06:15:26.784Z,19.80
2018-08-09T06:19:31.017Z,19.80
2018-08-09T06:23:35.243Z,20.00
2018-08-09T06:27:39.578Z,20.10
2018-08-09T06:31:43.939Z,20.30
2018-08-09T06:35:48.253Z,20.50
2018-08-09T06:39:52.598Z,20.60
2018-08-09T06:43:56.976Z,20.80
2018-08-09T06:48:01.184Z,21.10
2018-08-09T06:52:05.507Z,21.20
2018-08-09T06:56:09.726Z,21.40
2018-08-09T07:00:14.311Z,21.60
2018-08-09T07:04:18.544Z,21.80
2018-08-09T07:08:22.848Z,22.10
2018-08-09T07:12:27.158Z,22.30
2018-08-09T07:16:31.357Z,22.50
2018-08-09T07:20:35.787Z,22.60
2018-08-09T07:24:39.998Z,22.70
2018-08-09T07:28:44.312Z,22.90
2018-08-09T07:32:48.514Z,23.20
2018-08-09T07:36:52.876Z,23.40
2018-08-09T07:40:57.204Z,23.70
2018-08-09T07:45:01.549Z,23.90
2018-08-09T07:49:05.847Z,24.10
2018-08-09T07:53:10.258Z,24.50
2018-08-09T07:57:14.581Z,24.70
2018-08-09T08:01:18.829Z,24.90
2018-08-09T08:05:23.280Z,25.10
2018-08-09T08:09:27.588Z,25.20
2018-08-09T08:13:31.916Z,25.40
2018-08-09T08:17:36.167Z,25.80
2018-08-09T08:21:40.390Z,26.00
2018-08-09T08:25:44.745Z,26.20
2018-08-09T08:29:48.999Z,26.20
2018-08-09T08:33:53.712Z,26.60
2018-08-09T08:37:57.911Z,27.00
2018-08-09T08:42:02.340Z,27.10
2018-08-09T08:46:06.844Z,27.70
2018-08-09T08:50:11.487Z,27.80
2018-08-09T08:54:15.823Z,28.30
2018-08-09T08:58:20.112Z,29.60
2018-08-09T09:02:24.364Z,29.70
2018-08-09T09:06:28.606Z,29.80
2018-08-09T09:10:32.869Z,31.00
2018-08-09T09:14:37.208Z,31.60
2018-08-09T09:18:41.489Z,30.80
2018-08-09T09:22:46.149Z,31.10
2018-08-09T09:26:50.366Z,31.20
2018-08-09T09:30:54.721Z,32.20
2018-08-09T09:34:59.454Z,33.10
2018-08-09T09:39:04.044Z,32.10
2018-08-09T09:43:08.267Z,31.00
2018-08-09T09:47:12.555Z,31.60
2018-08-09T09:51:16.768Z,32.20
2018-08-09T09:55:21.081Z,32.50
2018-08-09T09:59:25.328Z,32.70
2018-08-09T10:03:29.595Z,33.60
2018-08-09T10:07:33.789Z,33.50
2018-08-09T10:11:38.040Z,34.50
2018-08-09T10:15:42.322Z,34.60
2018-08-09T10:19:46.526Z,35.00
2018-08-09T10:23:50.835Z,35.10
2018-08-09T10:27:55.039Z,34.20
2018-08-09T10:31:59.238Z,33.60
2018-08-09T10:36:03.533Z,34.90
2018-08-09T10:40:07.759Z,35.10
2018-08-09T10:44:12.066Z,36.00
2018-08-09T10:48:16.303Z,35.90
2018-08-09T10:52:20.573Z,35.40
2018-08-09T10:56:24.973Z,35.10
2018-08-09T11:00:30.302Z,34.50
2018-08-09T11:04:34.581Z,35.00
2018-08-09T11:08:38.931Z,36.40
2018-08-09T11:12:43.231Z,37.00
2018-08-09T11:16:47.573Z,37.80
2018-08-09T11:20:51.832Z,38.10
2018-08-09T11:24:56.072Z,37.00
2018-08-09T11:29:00.300Z,38.80
2018-08-09T11:33:05.796Z,38.50
2018-08-09T11:37:10.000Z,39.20
2018-08-09T11:41:14.327Z,38.30
2018-08-09T11:45:18.631Z,36.80
2018-08-09T11:49:22.905Z,37.30
2018-08-09T11:53:27.140Z,37.50
2018-08-09T11:57:31.471Z,37.10
2018-08-09T12:01:35.677Z,37.30
2018-08-09T12:05:40.097Z,37.90
2018-08-09T12:09:44.294Z,38.80
2018-08-09T12:13:48.591Z,39.00
2018-08-09T12:17:54.870Z,37.60
2018-08-09T12:21:59.088Z,37.40
2018-08-09T12:26:03.412Z,37.90
2018-08-09T12:30:10.512Z,39.10
2018-08-09T12:34:14.791Z,38.20
2018-08-09T12:38:19.116Z,39.40
2018-08-09T12:42:23.392Z,38.80
2018-08-09T12:46:27.692Z,39.20
2018-08-09T12:50:32.008Z,39.40
2018-08-09T12:54:36.402Z,38.80
2018-08-09T12:58:40.744Z,38.70
2018-08-09T13:02:44.999Z,37.70
2018-08-09T13:06:49.576Z,38.70
2018-08-09T13:10:53.957Z,39.10
2018-08-09T13:14:58.233Z,38.90
2018-08-09T13:19:02.436Z,39.30
2018-08-09T13:23:06.856Z,41.10
2018-08-09T13:27:11.090Z,41.10
2018-08-09T13:31:15.628Z,40.70
2018-08-09T13:35:19.959Z,39.90
2018-08-09T13:39:24.375Z,40.30
2018-08-09T13:43:28.645Z,39.20
2018-08-09T13:47:32.978Z,39.50
2018-08-09T13:51:37.310Z,41.50
2018-08-09T13:55:41.669Z,39.50
2018-08-09T13:59:46.005Z,40.40
2018-08-09T14:03:51.621Z,39.90
2018-08-09T14:07:55.944Z,40.90
2018-08-09T14:12:00.325Z,40.50
2018-08-09T14:16:04.653Z,41.00
2018-08-09T14:20:11.153Z,41.10
2018-08-09T14:24:15.497Z,41.40
2018-08-09T14:28:19.741Z,40.90
2018-08-09T14:32:24.048Z,40.30
2018-08-09T14:36:28.436Z,40.10
2018-08-09T14:40:32.738Z,40.30
2018-08-09T14:44:37.049Z,40.20
2018-08-09T14:48:41.385Z,40.00
2018-08-09T14:52:45.681Z,40.30
2018-08-09T14:56:52.233Z,40.60
2018-08-09T15:00:56.828Z,40.00
2018-08-09T15:05:01.187Z,40.40
2018-08-09T15:09:08.767Z,41.40
2018-08-09T15:13:13.107Z,41.80
2018-08-09T15:17:17.369Z,40.70
2018-08-09T15:21:21.736Z,40.80
2018-08-09T15:25:25.960Z,39.20
2018-08-09T15:29:30.615Z,38.30
2018-08-09T15:33:34.883Z,37.40
2018-08-09T15:37:39.138Z,37.60
2018-08-09T15:41:43.731Z,36.60
2018-08-09T15:45:47.914Z,35.60
2018-08-09T15:49:52.197Z,34.10
2018-08-09T15:53:56.468Z,33.00
2018-08-09T15:58:00.850Z,32.60
2018-08-09T16:02:05.145Z,32.00
2018-08-09T16:06:09.637Z,32.00
2018-08-09T16:10:15.046Z,31.50
2018-08-09T16:14:19.295Z,31.60
2018-08-09T16:18:23.545Z,31.80
2018-08-09T16:22:27.909Z,31.10
2018-08-09T16:26:32.213Z,31.10
2018-08-09T16:30:36.612Z,30.90
2018-08-09T16:34:40.835Z,30.30
2018-08-09T16:38:45.208Z,30.50
2018-08-09T16:42:49.585Z,30.30
2018-08-09T16:46:54.067Z,30.20
2018-08-09T16:50:59.112Z,30.00
2018-08-09T16:55:03.620Z,29.90
2018-08-09T16:59:07.931Z,29.90
2018-08-09T17:03:12.403Z,29.50
2018-08-09T17:07:16.857Z,29.50
2018-08-09T17:11:21.797Z,29.30
2018-08-09T17:15:28.928Z,28.90
2018-08-09T17:19:33.156Z,28.80
2018-08-09T17:23:37.497Z,28.60
2018-08-09T17:27:43.312Z,28.30
2018-08-09T17:31:47.755Z,27.90
2018-08-09T17:35:52.121Z,27.70
2018-08-09T17:39:56.832Z,27.30
2018-08-09T17:44:01.084Z,27.20
2018-08-09T17:48:06.090Z,27.00
2018-08-09T17:52:10.482Z,26.80
2018-08-09T17:56:14.744Z,26.70
2018-08-09T18:00:23.100Z,26.40
2018-08-09T18:04:27.351Z,26.30
2018-08-09T18:08:31.740Z,26.10
2018-08-09T18:12:35.999Z,25.90
2018-08-09T18:16:40.657Z,25.70
2018-08-09T18:20:45.058Z,25.40
2018-08-09T18:24:49.615Z,25.30
2018-08-09T18:28:54.177Z,25.00
2018-08-09T18:32:58.523Z,24.90
2018-08-09T18:37:02.940Z,24.90
2018-08-09T18:41:07.380Z,24.60
2018-08-09T18:45:12.228Z,24.40
2018-08-09T18:49:16.476Z,24.20
2018-08-09T18:53:20.879Z,24.10
2018-08-09T18:57:25.238Z,24.00
2018-08-09T19:01:29.534Z,23.90
2018-08-09T19:05:33.808Z,23.80
2018-08-09T19:09:38.070Z,23.90
2018-08-09T19:13:42.647Z,23.80
2018-08-09T19:17:47.251Z,23.60
2018-08-09T19:21:51.853Z,23.50
2018-08-09T19:25:56.342Z,23.40
2018-08-09T19:30:00.710Z,23.20
2018-08-09T19:34:05.516Z,23.20
2018-08-09T19:38:10.121Z,23.10
2018-08-09T19:42:14.722Z,23.20
2018-08-09T19:46:19.308Z,23.00
2018-08-09T19:50:24.785Z,22.90
2018-08-09T19:54:29.083Z,22.80
2018-08-09T19:58:34.805Z,22.70
2018-08-09T20:02:39.398Z,22.60
2018-08-09T20:06:44.073Z,22.60
2018-08-09T20:10:48.478Z,22.50
2018-08-09T20:14:53.014Z,22.50
2018-08-09T20:18:57.465Z,22.40
2018-08-09T20:23:02.168Z,22.30
2018-08-09T20:27:47.820Z,22.20
2018-08-09T20:40:26.759Z,22.10
2018-08-09T20:44:31.388Z,21.90
2018-08-09T20:48:36.012Z,21.90
2018-08-09T20:52:40.864Z,21.80
2018-08-09T20:56:45.212Z,21.70
2018-08-09T21:00:49.589Z,21.70
2018-08-09T21:04:53.835Z,21.70
2018-08-09T21:08:58.399Z,21.60
2018-08-09T21:13:02.902Z,21.60
2018-08-09T21:17:07.220Z,21.60
2018-08-09T21:21:11.453Z,21.40
2018-08-09T21:25:15.976Z,21.40
2018-08-09T21:29:20.323Z,21.30
2018-08-09T21:33:24.644Z,21.30
2018-08-09T21:37:28.961Z,21.20
2018-08-09T21:41:33.148Z,21.20
2018-08-09T21:45:37.545Z,21.20
2018-08-09T21:49:41.826Z,21.00
2018-08-09T21:53:46.122Z,20.90
2018-08-09T21:57:50.465Z,20.80
2018-08-09T22:01:54.780Z,20.80
2018-08-09T22:06:04.285Z,20.80
2018-08-09T22:10:13.640Z,20.80
2018-08-09T22:14:22.975Z,20.70
2018-08-09T22:18:32.541Z,20.70
2018-08-09T22:22:37.732Z,20.60
2018-08-09T22:26:42.031Z,20.50
2018-08-09T22:30:46.292Z,20.50
2018-08-09T22:34:50.515Z,20.40
2018-08-09T22:38:54.848Z,20.40
2018-08-09T22:42:59.050Z,20.40
2018-08-09T22:47:03.354Z,20.30
2018-08-09T22:51:07.913Z,20.20
2018-08-09T22:55:12.205Z,20.20
2018-08-09T22:59:16.576Z,20.20
2018-08-09T23:03:21.035Z,20.10
2018-08-09T23:07:25.304Z,20.30
2018-08-09T23:11:29.648Z,20.10
2018-08-09T23:15:33.909Z,20.10
2018-08-09T23:19:38.255Z,20.00
2018-08-09T23:23:42.625Z,19.90
2018-08-09T23:27:48.135Z,20.00
2018-08-09T23:31:52.783Z,19.90
2018-08-09T23:35:57.003Z,19.90
2018-08-09T23:40:01.332Z,19.90
2018-08-09T23:44:05.634Z,19.80
2018-08-09T23:48:09.968Z,19.80
2018-08-09T23:52:14.200Z,19.70
2018-08-09T23:56:18.459Z,19.70
